createdAt,value
2018-07-09T00:04:11.631Z,1.58
2018-07-09T00:10:06.642Z,1.76
2018-07-09T00:16:01.632Z,1.44
2018-07-09T00:21:56.657Z,1.66
2018-07-09T00:27:51.661Z,1.8
2018-07-09T00:33:46.621Z,1.51
2018-07-09T00:39:41.752Z,1.78
2018-07-09T00:45:36.651Z,1.25
2018-07-09T00:51:31.641Z,1.38
2018-07-09T00:57:26.642Z,2.23
2018-07-09T01:03:21.666Z,2.07
2018-07-09T01:09:16.638Z,2.38
2018-07-09T01:15:11.638Z,1.66
2018-07-09T01:21:06.660Z,1.97
2018-07-09T01:50:41.703Z,2.07
2018-07-09T01:50:41.758Z,1.97
2018-07-09T01:50:41.767Z,1.97
2018-07-09T01:50:41.788Z,1.68
2018-07-09T01:50:41.798Z,1.68
2018-07-09T01:56:36.681Z,1.81
2018-07-09T02:02:31.660Z,1.64
2018-07-09T02:08:26.657Z,1.94
2018-07-09T02:14:21.655Z,1.94
2018-07-09T02:20:16.677Z,1.69
2018-07-09T02:26:11.712Z,1.86
2018-07-09T02:32:06.704Z,2.9
2018-07-09T02:38:01.715Z,2.1
2018-07-09T02:43:56.677Z,2.34
2018-07-09T02:49:51.684Z,2.12
2018-07-09T02:55:46.723Z,1.95
2018-07-09T03:01:41.665Z,1.9
2018-07-09T03:07:36.820Z,1.91
2018-07-09T03:13:31.741Z,2.16
2018-07-09T03:19:26.688Z,2.01
2018-07-09T03:25:21.714Z,2.28
2018-07-09T03:31:16.731Z,1.95
2018-07-09T03:37:11.697Z,1.86
2018-07-09T03:43:06.712Z,2.05
2018-07-09T03:49:01.683Z,1.9
2018-07-09T03:54:56.688Z,2.14
2018-07-09T04:00:51.723Z,2.07
2018-07-09T04:06:46.696Z,2.09
2018-07-09T04:12:41.731Z,2.05
2018-07-09T04:18:36.728Z,2.38
2018-07-09T04:24:31.722Z,2.22
2018-07-09T04:48:11.730Z,1.99
2018-07-09T04:48:11.959Z,2.12
2018-07-09T04:48:11.973Z,2.12
2018-07-09T04:48:12.009Z,2.12
2018-07-09T04:54:06.768Z,2.04
2018-07-09T05:00:02.035Z,2.59
2018-07-09T05:05:56.727Z,2.25
2018-07-09T05:11:51.722Z,2.73
2018-07-09T05:17:46.740Z,2.52
2018-07-09T05:23:41.735Z,2.67
2018-07-09T05:29:36.752Z,2.47
2018-07-09T05:35:31.736Z,3.27
2018-07-09T05:41:26.743Z,2.9
2018-07-09T05:47:21.723Z,2.98
2018-07-09T05:53:16.750Z,2.61
2018-07-09T05:59:11.745Z,2.66
2018-07-09T06:05:06.740Z,2.79
2018-07-09T06:11:01.808Z,2.89
2018-07-09T06:16:56.737Z,3.08
2018-07-09T06:22:51.793Z,3.49
2018-07-09T06:28:46.730Z,3.22
2018-07-09T06:34:41.764Z,3.21
2018-07-09T06:40:36.757Z,3.33
2018-07-09T06:46:31.761Z,2.97
2018-07-09T06:52:26.742Z,4.06
2018-07-09T06:58:21.802Z,3.1
2018-07-09T07:04:16.749Z,3.33
2018-07-09T07:10:11.822Z,2.84
2018-07-09T07:16:06.776Z,2.86
2018-07-09T07:22:01.793Z,2.69
2018-07-09T07:51:36.814Z,2.81
2018-07-09T07:51:37.052Z,2.46
2018-07-09T07:51:37.088Z,2.82
2018-07-09T07:51:37.096Z,2.82
2018-07-09T07:51:37.105Z,2.82
2018-07-09T07:57:31.777Z,2.51
2018-07-09T08:03:26.775Z,2.87
2018-07-09T08:09:21.818Z,2.67
2018-07-09T08:15:16.818Z,2.94
2018-07-09T08:21:11.794Z,2.38
2018-07-09T08:27:06.832Z,2.29
2018-07-09T08:33:01.854Z,2.39
2018-07-09T08:38:56.821Z,2.18
2018-07-09T08:44:51.796Z,2.42
2018-07-09T08:50:46.805Z,2.04
2018-07-09T08:56:41.779Z,1.93
2018-07-09T09:02:36.841Z,2.07
2018-07-09T09:08:31.843Z,1.6
2018-07-09T09:14:26.817Z,2.08
2018-07-09T09:20:21.817Z,1.8
2018-07-09T09:26:16.869Z,1.51
2018-07-09T09:32:11.814Z,1.39
2018-07-09T09:38:06.818Z,2.03
2018-07-09T09:44:01.816Z,1.62
2018-07-09T09:49:56.830Z,1.82
2018-07-09T09:55:51.829Z,1.68
2018-07-09T10:01:46.871Z,1.7
2018-07-09T10:07:41.859Z,1.34
2018-07-09T10:13:36.856Z,1.65
2018-07-09T10:19:31.863Z,2.51
2018-07-09T10:25:26.888Z,1.63
2018-07-09T10:49:06.885Z,1.65
2018-07-09T10:49:06.966Z,1.85
2018-07-09T10:49:06.994Z,1.85
2018-07-09T10:49:07.049Z,1.85
2018-07-09T10:55:02.051Z,1.74
2018-07-09T11:00:56.858Z,1.59
2018-07-09T11:06:51.916Z,1.59
2018-07-09T11:12:46.862Z,1.67
2018-07-09T11:18:41.870Z,1.51
2018-07-09T11:24:36.898Z,1.29
2018-07-09T11:30:31.899Z,1.5
2018-07-09T11:36:27.015Z,1.67
2018-07-09T11:42:21.930Z,1.42
2018-07-09T11:48:16.916Z,1.42
2018-07-09T11:54:11.928Z,1.67
2018-07-09T12:00:07.650Z,1.59
2018-07-09T12:06:02.066Z,1.61
2018-07-09T12:11:56.925Z,1.36
2018-07-09T12:17:51.951Z,1.54
2018-07-09T12:23:47.000Z,1.74
2018-07-09T12:29:41.978Z,1.83
2018-07-09T12:35:36.883Z,1.56
2018-07-09T12:41:31.977Z,1.85
2018-07-09T12:47:26.904Z,1.48
2018-07-09T12:53:21.939Z,1.27
2018-07-09T12:59:16.940Z,1.42
2018-07-09T13:05:11.981Z,1.44
2018-07-09T13:11:06.896Z,1.46
2018-07-09T13:17:01.903Z,1.51
2018-07-09T13:22:56.921Z,1.2
2018-07-09T13:52:31.947Z,1.47
2018-07-09T13:52:31.971Z,1.36
2018-07-09T13:52:31.988Z,1.36
2018-07-09T13:52:32.007Z,1.36
2018-07-09T13:52:32.015Z,1.36
2018-07-09T13:58:26.930Z,1.29
2018-07-09T14:04:21.990Z,1.37
2018-07-09T14:10:16.942Z,1.39
2018-07-09T14:16:11.948Z,1.36
2018-07-09T14:22:06.934Z,1.36
2018-07-09T14:28:01.956Z,1.43
2018-07-09T14:33:56.941Z,1.42
2018-07-09T14:39:51.976Z,1.53
2018-07-09T14:45:46.947Z,1.96
2018-07-09T14:51:42.093Z,1.46
2018-07-09T14:57:37.035Z,1.62
2018-07-09T15:03:31.974Z,1.7
2018-07-09T15:09:26.964Z,2.11
2018-07-09T15:15:22.016Z,1.54
2018-07-09T15:21:16.989Z,2.23
2018-07-09T15:27:11.966Z,2.19
2018-07-09T15:33:06.967Z,2.23
2018-07-09T15:39:02.130Z,2.14
2018-07-09T15:44:57.005Z,2.62
2018-07-09T15:50:52.013Z,2.33
2018-07-09T15:56:46.982Z,2.36
2018-07-09T16:02:42.048Z,2.3
2018-07-09T16:08:36.984Z,2.38
2018-07-09T16:14:32.014Z,2.43
2018-07-09T16:20:27.027Z,2.09
2018-07-09T16:26:22.085Z,2.72
2018-07-09T16:50:02.027Z,2.2
2018-07-09T16:50:02.203Z,2.56
2018-07-09T16:50:02.213Z,2.56
2018-07-09T16:50:02.248Z,2.56
2018-07-09T16:55:57.023Z,2.4
2018-07-09T17:01:52.018Z,2.38
2018-07-09T17:07:47.037Z,2.63
2018-07-09T17:13:42.031Z,2.25
2018-07-09T17:19:37.183Z,2.32
2018-07-09T17:25:32.328Z,2.61
2018-07-09T17:31:27.037Z,2.42
2018-07-09T17:37:22.034Z,2.56
2018-07-09T17:43:17.043Z,2.57
2018-07-09T17:49:12.046Z,2.45
2018-07-09T17:55:07.047Z,2.4
2018-07-09T18:01:02.069Z,2.75
2018-07-09T18:06:57.086Z,3.1
2018-07-09T18:12:52.234Z,2.65
2018-07-09T18:18:47.079Z,2.6
2018-07-09T18:24:42.359Z,2.56
2018-07-09T18:30:37.648Z,2.61
2018-07-09T18:36:32.056Z,3.01
2018-07-09T18:42:27.052Z,3
2018-07-09T18:48:22.083Z,2.52
2018-07-09T18:54:17.201Z,2.64
2018-07-09T19:00:12.261Z,2.64
2018-07-09T19:06:07.096Z,2.8
2018-07-09T19:12:02.132Z,2.46
2018-07-09T19:17:57.063Z,3.17
2018-07-09T19:23:52.121Z,2.62
2018-07-09T19:53:27.080Z,2.67
2018-07-09T19:53:27.286Z,3.17
2018-07-09T19:53:27.289Z,3.17
2018-07-09T19:53:27.315Z,3.17
2018-07-09T19:53:27.335Z,3.17
2018-07-09T19:59:22.104Z,2.93
2018-07-09T20:05:17.119Z,3.48
2018-07-09T20:11:12.100Z,3.13
2018-07-09T20:17:07.152Z,3.32
2018-07-09T20:23:02.093Z,3.09
2018-07-09T20:28:57.103Z,2.67
2018-07-09T20:34:52.106Z,2.99
2018-07-09T20:40:47.167Z,2.7
2018-07-09T20:46:42.153Z,2.57
2018-07-09T20:52:37.087Z,2.72
2018-07-09T20:58:32.105Z,2.88
2018-07-09T21:04:27.124Z,2.75
2018-07-09T21:10:22.148Z,3.13
2018-07-09T21:16:17.332Z,3.38
2018-07-09T21:22:12.116Z,2.79
2018-07-09T21:28:07.173Z,2.85
2018-07-09T21:34:02.230Z,2.64
2018-07-09T21:39:57.188Z,2.87
2018-07-09T21:45:52.116Z,3.01
2018-07-09T21:51:47.152Z,2.79
2018-07-09T21:57:42.159Z,2.93
2018-07-09T22:03:37.140Z,2.77
2018-07-09T22:09:32.190Z,2.76
2018-07-09T22:15:27.158Z,2.76
2018-07-09T22:21:22.174Z,2.91
2018-07-09T22:27:17.277Z,2.62
2018-07-09T22:50:57.270Z,3.01
2018-07-09T22:50:57.270Z,2.51
2018-07-09T22:50:57.302Z,2.72
2018-07-09T22:50:57.379Z,2.72
2018-07-09T22:56:52.174Z,3.14
2018-07-09T23:02:47.193Z,2.95
2018-07-09T23:08:42.150Z,2.82
2018-07-09T23:14:37.174Z,2.45
2018-07-09T23:20:32.155Z,3.1
2018-07-09T23:26:27.142Z,2.95
2018-07-09T23:32:22.154Z,2.74
2018-07-09T23:38:17.194Z,3.2
2018-07-09T23:44:12.169Z,2.64
2018-07-09T23:50:07.157Z,2.69
2018-07-09T23:56:02.210Z,2.57
